createdAt,value
2023-03-29T00:00:49.554Z,-0.11
2023-03-29T00:03:52.020Z,-0.30
2023-03-29T00:06:55.230Z,-0.17
2023-03-29T00:09:58.044Z,-0.22
2023-03-29T00:13:00.042Z,-0.24
2023-03-29T00:16:01.913Z,-0.26
2023-03-29T00:19:04.676Z,-0.25
2023-03-29T00:22:06.791Z,-0.29
2023-03-29T00:25:09.754Z,-0.31
2023-03-29T00:28:13.896Z,-0.30
2023-03-29T00:31:17.697Z,-0.28
2023-03-29T00:34:30.828Z,-0.27
2023-03-29T00:37:32.958Z,-0.24
2023-03-29T00:40:35.305Z,-0.21
2023-03-29T00:43:55.400Z,-0.12
2023-03-29T00:46:57.342Z,-0.05
2023-03-29T00:50:06.992Z,0.01
2023-03-29T00:53:22.973Z,0.14
2023-03-29T00:56:29.895Z,0.22
2023-03-29T00:59:35.714Z,0.23
2023-03-29T01:02:39.903Z,0.26
2023-03-29T01:05:45.098Z,0.26
2023-03-29T01:08:54.852Z,0.22
2023-03-29T01:12:03.553Z,0.12
2023-03-29T01:15:26.600Z,0.17
2023-03-29T01:18:31.388Z,0.15
2023-03-29T01:21:36.357Z,0.16
2023-03-29T01:25:11.355Z,0.12
2023-03-29T01:28:15.721Z,0.10
2023-03-29T01:31:25.276Z,0.09
2023-03-29T01:34:47.381Z,0.06
2023-03-29T01:37:56.721Z,-0.05
2023-03-29T01:40:58.550Z,-0.15
2023-03-29T01:44:10.277Z,-0.12
2023-03-29T01:47:24.390Z,-0.14
2023-03-29T01:50:49.370Z,-0.39
2023-03-29T01:54:28.573Z,-0.27
2023-03-29T01:57:32.981Z,-0.35
2023-03-29T02:00:36.319Z,-0.55
2023-03-29T02:03:42.927Z,-0.59
2023-03-29T02:06:45.127Z,-0.67
2023-03-29T02:09:48.905Z,-0.67
2023-03-29T02:12:50.852Z,-0.77
2023-03-29T02:15:52.781Z,-1.00
2023-03-29T02:18:56.474Z,-1.04
2023-03-29T02:22:07.399Z,-1.15
2023-03-29T02:25:09.650Z,-1.06
2023-03-29T02:28:11.870Z,-1.08
2023-03-29T02:31:21.460Z,-1.02
2023-03-29T02:34:30.023Z,-0.99
2023-03-29T02:37:34.488Z,-1.01
2023-03-29T02:40:37.709Z,-1.08
2023-03-29T02:43:41.358Z,-1.32
2023-03-29T02:46:43.993Z,-1.31
2023-03-29T02:49:45.875Z,-1.20
2023-03-29T02:52:54.104Z,-1.35
2023-03-29T02:55:56.156Z,-1.26
2023-03-29T02:58:58.076Z,-1.25
2023-03-29T03:02:00.773Z,-1.28
2023-03-29T03:05:02.627Z,-1.27
2023-03-29T03:08:07.234Z,-1.29
2023-03-29T03:11:09.093Z,-1.38
2023-03-29T03:14:11.152Z,-1.33
2023-03-29T03:17:12.890Z,-1.45
2023-03-29T03:20:15.052Z,-1.46
2023-03-29T03:23:17.805Z,-1.48
2023-03-29T03:26:20.054Z,-1.56
2023-03-29T03:29:22.254Z,-1.56
2023-03-29T03:32:24.102Z,-1.58
2023-03-29T03:35:25.905Z,-1.72
2023-03-29T03:38:27.651Z,-1.79
2023-03-29T03:41:29.437Z,-1.80
2023-03-29T03:44:31.486Z,-1.78
2023-03-29T03:47:33.999Z,-1.79
2023-03-29T03:50:35.855Z,-1.79
2023-03-29T03:53:38.050Z,-1.84
2023-03-29T03:56:39.955Z,-1.84
2023-03-29T03:59:42.226Z,-1.85
2023-03-29T04:02:45.011Z,-1.87
2023-03-29T04:05:47.393Z,-1.90
2023-03-29T04:08:49.191Z,-1.92
2023-03-29T04:11:53.120Z,-1.98
2023-03-29T04:14:56.071Z,-2.01
2023-03-29T04:17:59.223Z,-2.02
2023-03-29T04:21:01.458Z,-2.03
2023-03-29T04:24:03.464Z,-2.03
2023-03-29T04:27:05.209Z,-2.02
2023-03-29T04:30:08.151Z,-2.02
2023-03-29T04:33:10.406Z,-2.01
2023-03-29T04:36:13.953Z,-1.97
2023-03-29T04:39:18.061Z,-2.01
2023-03-29T04:42:20.564Z,-2.08
2023-03-29T04:45:22.596Z,-1.88
2023-03-29T04:48:25.785Z,-1.76
2023-03-29T04:51:27.598Z,-1.65
2023-03-29T04:54:29.489Z,-1.53
2023-03-29T04:57:31.451Z,-1.49
2023-03-29T05:00:33.912Z,-1.46
2023-03-29T05:03:36.466Z,-1.42
2023-03-29T05:06:38.631Z,-1.40
2023-03-29T05:09:41.808Z,-1.47
2023-03-29T05:12:43.641Z,-1.44
2023-03-29T05:15:45.484Z,-1.08
2023-03-29T05:18:47.328Z,-0.96
2023-03-29T05:21:51.227Z,-1.01
2023-03-29T05:24:53.076Z,-0.76
2023-03-29T05:27:56.382Z,-0.73
2023-03-29T05:31:05.179Z,-0.74
2023-03-29T05:34:07.215Z,-0.63
2023-03-29T05:37:09.114Z,-0.53
2023-03-29T05:40:13.073Z,-0.38
2023-03-29T05:43:15.000Z,-0.26
2023-03-29T05:46:16.962Z,-0.14
2023-03-29T05:49:19.450Z,0.09
2023-03-29T05:52:21.396Z,0.30
2023-03-29T05:55:23.753Z,0.57
2023-03-29T05:58:26.637Z,0.72
2023-03-29T06:01:28.733Z,0.79
2023-03-29T06:04:31.837Z,0.99
2023-03-29T06:07:33.697Z,1.09
2023-03-29T06:10:37.514Z,1.18
2023-03-29T06:13:39.532Z,1.02
2023-03-29T06:16:42.806Z,1.29
2023-03-29T06:19:44.818Z,1.39
2023-03-29T06:22:47.929Z,1.34
2023-03-29T06:25:51.558Z,1.57
2023-03-29T06:28:53.876Z,1.65
2023-03-29T06:31:57.208Z,1.81
2023-03-29T06:34:59.022Z,1.87
2023-03-29T06:38:01.449Z,2.03
2023-03-29T06:41:04.941Z,2.22
2023-03-29T06:44:06.899Z,2.14
2023-03-29T06:47:09.265Z,2.22
2023-03-29T06:50:11.728Z,2.46
2023-03-29T06:53:13.801Z,2.68
2023-03-29T06:56:16.112Z,2.70
2023-03-29T06:59:18.215Z,2.91
2023-03-29T07:02:20.144Z,3.06
2023-03-29T07:05:22.195Z,3.21
2023-03-29T07:08:30.977Z,3.15
2023-03-29T07:11:36.913Z,3.33
2023-03-29T07:14:39.880Z,3.50
2023-03-29T07:17:41.761Z,3.61
2023-03-29T07:20:44.640Z,3.75
2023-03-29T07:23:46.668Z,3.83
2023-03-29T07:27:00.164Z,3.90
2023-03-29T07:30:11.194Z,4.01
2023-03-29T07:33:13.532Z,4.08
2023-03-29T07:36:16.694Z,4.12
2023-03-29T07:39:19.269Z,4.14
2023-03-29T07:42:21.577Z,4.28
2023-03-29T07:45:26.813Z,4.51
2023-03-29T07:48:30.844Z,4.52
2023-03-29T07:51:32.604Z,4.73
2023-03-29T07:54:34.751Z,4.93
2023-03-29T07:57:36.763Z,5.17
2023-03-29T08:00:38.560Z,5.65
2023-03-29T08:03:41.495Z,6.13
2023-03-29T08:06:43.462Z,6.41
2023-03-29T08:09:45.423Z,6.67
2023-03-29T08:12:48.228Z,6.91
2023-03-29T08:15:50.358Z,7.30
2023-03-29T08:18:52.141Z,7.44
2023-03-29T08:21:54.109Z,7.59
2023-03-29T08:24:55.894Z,7.56
2023-03-29T08:27:58.016Z,7.96
2023-03-29T08:31:00.145Z,8.36
2023-03-29T08:34:02.260Z,8.28
2023-03-29T08:37:04.867Z,8.25
2023-03-29T08:40:07.372Z,8.67
2023-03-29T08:43:38.238Z,8.34
2023-03-29T08:46:52.277Z,8.07
2023-03-29T08:49:56.393Z,8.41
2023-03-29T08:53:03.190Z,8.90
2023-03-29T08:56:08.824Z,8.84
2023-03-29T08:59:23.180Z,9.00
2023-03-29T09:02:27.818Z,9.11
2023-03-29T09:05:34.499Z,8.59
2023-03-29T09:08:41.836Z,8.64
2023-03-29T09:12:24.621Z,8.84
2023-03-29T09:15:40.648Z,8.62
2023-03-29T09:18:42.478Z,8.62
2023-03-29T09:21:57.967Z,8.80
2023-03-29T09:25:50.837Z,8.52
2023-03-29T09:29:23.681Z,9.24
2023-03-29T09:32:37.343Z,9.12
2023-03-29T09:35:45.678Z,9.10
2023-03-29T09:38:50.965Z,9.16
2023-03-29T09:42:04.189Z,9.37
2023-03-29T09:45:09.562Z,9.34
2023-03-29T09:48:16.007Z,9.73
2023-03-29T09:51:20.176Z,10.13
2023-03-29T09:54:22.312Z,10.16
2023-03-29T09:57:26.208Z,10.32
2023-03-29T10:00:28.483Z,9.78
2023-03-29T10:03:31.884Z,10.02
2023-03-29T10:06:34.340Z,9.88
2023-03-29T10:09:36.101Z,9.46
2023-03-29T10:12:38.269Z,9.90
2023-03-29T10:15:40.033Z,10.14
2023-03-29T10:18:43.045Z,9.90
2023-03-29T10:21:47.152Z,9.49
2023-03-29T10:24:53.658Z,9.84
2023-03-29T10:28:04.421Z,9.45
2023-03-29T10:31:08.307Z,10.37
2023-03-29T10:34:12.880Z,10.32
2023-03-29T10:37:16.670Z,10.49
2023-03-29T10:40:24.638Z,10.45
2023-03-29T10:43:32.324Z,10.64
2023-03-29T10:46:41.924Z,10.71
2023-03-29T10:49:50.841Z,10.39
2023-03-29T10:52:53.034Z,10.56
2023-03-29T10:55:57.851Z,10.69
2023-03-29T10:59:14.396Z,10.69
2023-03-29T11:02:24.589Z,9.48
2023-03-29T11:05:38.761Z,10.32
2023-03-29T11:08:49.006Z,10.37
2023-03-29T11:12:15.458Z,10.83
2023-03-29T11:15:30.233Z,10.62
2023-03-29T11:18:41.391Z,11.12
2023-03-29T11:21:50.086Z,11.33
2023-03-29T11:25:02.398Z,11.41
2023-03-29T11:28:11.149Z,11.40
2023-03-29T11:31:39.844Z,11.51
2023-03-29T11:34:57.357Z,11.79
2023-03-29T11:38:24.292Z,11.67
2023-03-29T11:41:30.054Z,11.83
2023-03-29T11:44:31.967Z,11.88
2023-03-29T11:47:38.826Z,11.72
2023-03-29T11:50:53.864Z,11.81
2023-03-29T11:54:21.919Z,11.53
2023-03-29T11:57:27.987Z,11.58
2023-03-29T12:00:42.366Z,12.21
2023-03-29T12:03:51.764Z,12.10
2023-03-29T12:07:01.765Z,12.44
2023-03-29T12:10:20.962Z,12.27
2023-03-29T12:13:36.311Z,11.74
2023-03-29T12:16:44.035Z,12.04
2023-03-29T12:20:13.993Z,12.33
2023-03-29T12:23:16.322Z,12.09
2023-03-29T12:26:32.765Z,11.92
2023-03-29T12:29:49.615Z,11.83
2023-03-29T12:33:19.165Z,12.46
2023-03-29T12:36:30.136Z,11.28
2023-03-29T12:39:33.400Z,11.87
2023-03-29T12:42:44.785Z,11.92
2023-03-29T12:45:51.127Z,11.36
2023-03-29T12:48:58.137Z,10.86
2023-03-29T12:52:02.486Z,11.59
2023-03-29T12:55:21.256Z,11.85
2023-03-29T12:58:43.033Z,11.58
2023-03-29T13:01:57.978Z,11.63
2023-03-29T13:05:01.252Z,10.84
2023-03-29T13:08:36.617Z,11.64
2023-03-29T13:11:41.392Z,12.01
2023-03-29T13:14:45.628Z,11.81
2023-03-29T13:18:04.203Z,12.10
2023-03-29T13:21:21.358Z,12.12
2023-03-29T13:24:38.348Z,12.05
2023-03-29T13:27:55.449Z,11.76
2023-03-29T13:31:28.295Z,11.76
2023-03-29T13:34:49.247Z,12.13
2023-03-29T13:38:00.254Z,12.17
2023-03-29T13:41:12.291Z,11.95
2023-03-29T13:44:27.329Z,11.72
2023-03-29T13:47:40.224Z,11.69
2023-03-29T13:50:53.971Z,11.72
2023-03-29T13:54:27.313Z,11.61
2023-03-29T13:57:39.798Z,11.55
2023-03-29T14:01:15.508Z,11.27
2023-03-29T14:04:23.951Z,11.39
2023-03-29T14:07:28.058Z,11.45
2023-03-29T14:10:41.636Z,11.21
2023-03-29T14:13:43.528Z,11.28
2023-03-29T14:16:46.204Z,11.19
2023-03-29T14:19:48.674Z,11.41
2023-03-29T14:22:51.536Z,11.58
2023-03-29T14:25:53.341Z,11.30
2023-03-29T14:28:57.466Z,11.47
2023-03-29T14:32:10.566Z,11.31
2023-03-29T14:35:13.347Z,11.06
2023-03-29T14:38:16.566Z,11.26
2023-03-29T14:41:18.564Z,11.06
2023-03-29T14:44:22.503Z,10.66
2023-03-29T14:47:28.469Z,10.72
2023-03-29T14:50:31.417Z,10.71
2023-03-29T14:53:34.509Z,10.38
2023-03-29T14:56:36.700Z,10.16
2023-03-29T14:59:41.721Z,10.22
2023-03-29T15:02:55.195Z,10.02
2023-03-29T15:06:02.786Z,10.23
2023-03-29T15:09:06.808Z,10.22
2023-03-29T15:12:15.519Z,10.10
2023-03-29T15:15:17.517Z,10.02
2023-03-29T15:18:30.692Z,10.09
2023-03-29T15:21:36.109Z,10.23
2023-03-29T15:24:44.893Z,10.11
2023-03-29T15:27:50.520Z,10.02
2023-03-29T15:31:07.152Z,9.99
2023-03-29T15:34:13.094Z,10.05
2023-03-29T15:37:14.897Z,10.14
2023-03-29T15:40:19.829Z,10.08
2023-03-29T15:43:22.535Z,10.11
2023-03-29T15:46:25.352Z,9.93
2023-03-29T15:49:27.657Z,9.77
2023-03-29T15:52:29.436Z,9.77
2023-03-29T15:55:32.134Z,9.87
2023-03-29T15:58:34.853Z,9.86
2023-03-29T16:01:37.656Z,9.87
2023-03-29T16:04:39.819Z,10.04
2023-03-29T16:07:41.780Z,10.08
2023-03-29T16:10:47.215Z,9.81
2023-03-29T16:13:49.674Z,9.69
2023-03-29T16:16:52.888Z,9.67
2023-03-29T16:19:54.834Z,9.62
2023-03-29T16:22:56.785Z,9.50
2023-03-29T16:25:59.388Z,9.52
2023-03-29T16:29:01.572Z,9.56
2023-03-29T16:32:06.143Z,9.68
2023-03-29T16:35:42.382Z,9.59
2023-03-29T16:38:45.042Z,9.45
2023-03-29T16:41:48.966Z,9.46
2023-03-29T16:44:51.202Z,9.33
2023-03-29T16:47:54.464Z,9.21
2023-03-29T16:50:56.821Z,9.16
2023-03-29T16:54:00.689Z,9.13
2023-03-29T16:57:02.772Z,8.97
2023-03-29T17:00:06.892Z,9.02
2023-03-29T17:03:09.050Z,8.99
2023-03-29T17:06:11.702Z,8.91
2023-03-29T17:09:13.759Z,8.87
2023-03-29T17:13:33.097Z,9.53
2023-03-29T17:16:35.112Z,9.53
2023-03-29T17:19:36.979Z,8.73
2023-03-29T17:22:40.347Z,8.64
2023-03-29T17:25:43.048Z,8.62
2023-03-29T17:28:44.928Z,8.50
2023-03-29T17:31:47.853Z,8.36
2023-03-29T17:34:50.001Z,8.34
2023-03-29T17:37:52.048Z,8.28
2023-03-29T17:40:54.907Z,8.19
2023-03-29T17:43:56.790Z,8.08
2023-03-29T17:46:58.712Z,8.09
2023-03-29T17:50:01.075Z,7.97
2023-03-29T17:53:05.548Z,7.96
2023-03-29T17:56:07.922Z,7.99
2023-03-29T17:59:09.763Z,7.97
2023-03-29T18:02:19.839Z,7.97
2023-03-29T18:05:21.756Z,7.95
2023-03-29T18:08:23.979Z,7.85
2023-03-29T18:11:25.826Z,7.82
2023-03-29T18:14:27.938Z,7.74
2023-03-29T18:17:30.252Z,7.69
2023-03-29T18:20:32.342Z,7.66
2023-03-29T18:23:37.643Z,7.61
2023-03-29T18:26:39.487Z,7.56
2023-03-29T18:29:42.465Z,7.55
2023-03-29T18:32:46.056Z,7.48
2023-03-29T18:35:50.563Z,7.32
2023-03-29T18:38:55.693Z,7.25
2023-03-29T18:41:57.659Z,7.28
2023-03-29T18:44:59.737Z,7.30
2023-03-29T18:48:02.173Z,7.14
2023-03-29T18:51:07.408Z,7.03
2023-03-29T18:54:09.778Z,7.01
2023-03-29T18:57:12.012Z,6.98
2023-03-29T19:00:14.225Z,7.02
2023-03-29T19:03:17.978Z,7.03
2023-03-29T19:06:21.754Z,7.00
2023-03-29T19:09:23.585Z,7.01
2023-03-29T19:12:25.828Z,6.99
2023-03-29T19:15:28.273Z,6.98
2023-03-29T19:18:30.615Z,7.00
2023-03-29T19:21:33.272Z,6.95
2023-03-29T19:24:35.409Z,7.03
2023-03-29T19:27:37.650Z,7.02
2023-03-29T19:30:39.907Z,6.97
2023-03-29T19:33:42.178Z,6.43
2023-03-29T19:36:44.374Z,6.30
2023-03-29T19:39:46.646Z,6.35
2023-03-29T19:42:49.074Z,6.41
2023-03-29T19:45:51.305Z,6.42
2023-03-29T19:48:55.702Z,6.43
2023-03-29T19:51:58.388Z,6.39
2023-03-29T19:55:00.833Z,6.34
2023-03-29T19:58:02.756Z,6.34
2023-03-29T20:01:04.864Z,6.29
2023-03-29T20:04:07.731Z,6.25
2023-03-29T20:07:09.774Z,6.33
2023-03-29T20:10:12.259Z,6.34
2023-03-29T20:13:17.272Z,6.44
2023-03-29T20:16:27.157Z,6.33
2023-03-29T20:19:29.971Z,6.42
2023-03-29T20:22:32.780Z,6.46
2023-03-29T20:25:36.231Z,6.47
2023-03-29T20:28:38.250Z,6.34
2023-03-29T20:31:40.440Z,6.44
2023-03-29T20:34:42.374Z,6.45
2023-03-29T20:37:44.224Z,6.48
2023-03-29T20:40:46.052Z,6.43
2023-03-29T20:43:47.949Z,6.46
2023-03-29T20:47:08.614Z,6.51
2023-03-29T20:50:10.814Z,6.54
2023-03-29T20:53:13.299Z,6.54
2023-03-29T20:56:15.276Z,6.56
2023-03-29T20:59:17.682Z,6.54
2023-03-29T21:02:22.064Z,6.56
2023-03-29T21:05:25.534Z,6.53
2023-03-29T21:08:28.693Z,6.51
2023-03-29T21:11:30.481Z,6.04
2023-03-29T21:14:33.372Z,6.54
2023-03-29T21:17:36.068Z,6.49
2023-03-29T21:20:38.003Z,6.53
2023-03-29T21:23:39.993Z,6.54
2023-03-29T21:26:41.819Z,6.59
2023-03-29T21:29:43.683Z,6.60
2023-03-29T21:32:45.659Z,6.51
2023-03-29T21:35:48.509Z,6.57
2023-03-29T21:38:50.899Z,6.58
2023-03-29T21:41:53.199Z,6.60
2023-03-29T21:44:54.939Z,6.60
2023-03-29T21:47:56.881Z,6.60
2023-03-29T21:50:58.888Z,6.41
2023-03-29T21:54:00.717Z,6.40
2023-03-29T21:57:02.581Z,6.43
2023-03-29T22:00:10.953Z,6.41
2023-03-29T22:03:13.789Z,6.39
2023-03-29T22:06:15.645Z,6.30
2023-03-29T22:09:17.487Z,6.24
2023-03-29T22:12:19.734Z,6.17
2023-03-29T22:15:21.436Z,6.19
2023-03-29T22:18:23.687Z,5.96
2023-03-29T22:21:26.728Z,6.23
2023-03-29T22:24:29.076Z,6.19
2023-03-29T22:27:31.454Z,6.17
2023-03-29T22:30:33.500Z,6.15
2023-03-29T22:33:36.778Z,6.14
2023-03-29T22:36:38.708Z,6.14
2023-03-29T22:39:40.712Z,6.09
2023-03-29T22:42:42.505Z,6.04
2023-03-29T22:45:44.394Z,6.01
2023-03-29T22:48:46.641Z,5.98
2023-03-29T22:51:48.852Z,5.92
2023-03-29T22:54:51.214Z,5.88
2023-03-29T22:57:53.039Z,5.82
2023-03-29T23:00:55.176Z,5.84
2023-03-29T23:03:57.116Z,5.79
2023-03-29T23:06:58.969Z,5.78
2023-03-29T23:10:00.923Z,5.78
2023-03-29T23:13:08.890Z,5.76
2023-03-29T23:16:11.040Z,5.73
2023-03-29T23:19:13.619Z,5.69
2023-03-29T23:22:15.960Z,5.68
2023-03-29T23:25:18.289Z,5.65
2023-03-29T23:28:23.395Z,5.66
2023-03-29T23:31:25.333Z,5.66
2023-03-29T23:34:27.619Z,5.63
2023-03-29T23:37:29.500Z,5.59
2023-03-29T23:40:33.168Z,5.50
2023-03-29T23:43:37.302Z,5.09
2023-03-29T23:46:39.484Z,5.27
2023-03-29T23:49:41.993Z,5.22
2023-03-29T23:52:43.821Z,5.15
2023-03-29T23:55:47.396Z,5.12
2023-03-29T23:58:49.452Z,5.21
